Burley Municipal Airport
KBYI : rendu visible

Aérodrome :











RETROUVEZ-NOUS SUR...

 
LOGIN :

S'inscrire | Disclaimer

   EN    FR    IT 

 









Légende :    VFR   VFR Marginal   IFR   IFR Intensif   IFR Très Intensif
Visi : 
Plafond : 
>= 8 km
>= 3000ft
5 à 8 km
1000 à 3000 ft
1500m à 5 km
500 à 1000 ft
800 à 1500m
200 à 500 ft
< 800m
< 200 ft
Symboles :   Orages  Brouillard  Fortes neiges  Fortes précipitations  Vent > 20 kt






- Altitude de l'aérodrome : 4150 ft


KBYI - Burley Municipal

DERNIER METAR :
  • 240553Z AUTO 01003KT 10SM CLR M01/M03 A3015 RMK AO2 SLP217 T10061028 10056 21017 58007

METARs EXPIRÉS :
  • 240453Z AUTO 03003KT 10SM CLR M01/M02 A3016 RMK AO2 SLP224 T10061022
  • 240353Z AUTO 35003KT 9SM CLR M01/M02 A3017 RMK AO2 SLP230 T10061022

TAF KBYI
Valide du 24 à 06h jusqu'au 25 à 06h UTC


240521Z 2406/2506 VRB04KT P6SM SCT040
FM240900 VRB04KT P6SM BKN050 BKN140
FM241400 07006KT 4SM -RASN BR SCT008 OVC015
TEMPO 2415/2417 1SM -SN BR OVC008
FM241900 25015KT 6SM BR VCSH SCT008 OVC015
FM250200 25006KT P6SM OVC008



MET'MAP, la Météo Aéronautique d'un coup d'oeil ! - Copyright ORBIFLY Décembre 2007 - Disclaimer

ORBIFLY MET'MAP TEAM :

Programmation & Développement : Alexandra Zaïnal
Sur une idée originale de : Baudouin d'Aumeries
Assistance à la programmation : Marc-Olivier Méhu
Soutien technique & logistique : Manuel Goepfert

Contact : metmap@orbifly.com




SOURCES & CREDITS :

   NOAA       Earth
Advisory